KRIV

March ARB Airport

Riverside, California, USA
METAR KRIV 252158Z AUTO 30010KT 10SM CLR 21/08 A3006 RMK AO2 SLP173 T02080078 $
Observed Flight Rules
May-25 @ 21:58 UTC (34 minutes ago) Visual Flight Rules
Wind Visibility Clouds
300° at 10 knots 10 miles
  • Clear skies
Temperatures Readings
Current 21°C / 70°F
Dewpoint 8°C / 46°F
Humidity 43%
Altimeter 30.06" Hg
Pressure 1017.3 hPa
Elevation 469
METAR KRIV 252158Z AUTO 30010KT 10SM CLR 21/08 A3006 RMK AO2 SLP173 T02080078 $
Observed Flight Rules
May-25 @ 21:58 UTC
(34 minutes ago)
VFR
Wind Visibility
300° at 10 knots 10 miles
Clouds
  • Clear skies
Temperature Dewpoint
21°C / 70°F 8°C / 46°F
Humidity Altimeter Pressure
43% 30.06" Hg 1017.3 hPa